Time;durP1;ratioP1;P1;durP2;ratioP2;P2;SDS_P1;SDS_P2;PMS_P1;PMS_P2;Temp;Humidity;BMP_temperature;BMP_pressure;BME280_temperature;BME280_humidity;BME280_pressure;Samples;Min_cycle;Max_cycle;Signal;HPM_P1;HPM_P2
2022/05/09 00:01:42;;;;;;;13.38;4.13;;;3.50;99.90;;;;;;5095099;28;20118;-43
2022/05/09 00:04:08;;;;;;;9.98;3.85;;;;;;;;;;5093791;28;20096;-43
2022/05/09 00:06:34;;;;;;;18.00;5.35;;;;;;;;;;5094282;28;20526;-47
2022/05/09 00:09:00;;;;;;;15.63;4.80;;;;;;;;;;5094914;28;20063;-44
2022/05/09 00:11:26;;;;;;;16.77;4.20;;;;;;;;;;5094391;28;20035;-43
2022/05/09 00:13:53;;;;;;;11.98;4.03;;;3.60;99.90;;;;;;5094640;28;20147;-42
2022/05/09 00:16:20;;;;;;;14.90;4.45;;;;;;;;;;5094799;28;20096;-44
2022/05/09 00:18:47;;;;;;;15.27;5.03;;;;;;;;;;5092511;28;20053;-42
2022/05/09 00:21:13;;;;;;;13.32;5.40;;;;;;;;;;5094238;28;20040;-42
2022/05/09 00:23:42;;;;;;;12.30;5.05;;;3.70;99.90;;;;;;5094197;28;20043;-43
2022/05/09 00:26:08;;;;;;;8.95;3.25;;;;;;;;;;5093731;28;20774;-44
2022/05/09 00:28:35;;;;;;;11.80;3.80;;;;;;;;;;5094635;28;20032;-43
2022/05/09 00:31:02;;;;;;;6.32;3.15;;;3.50;99.90;;;;;;5095312;28;20036;-45
2022/05/09 00:33:28;;;;;;;5.68;2.85;;;;;;;;;;5094199;28;20047;-42
2022/05/09 00:35:54;;;;;;;7.38;2.60;;;3.60;99.90;;;;;;5094012;28;20058;-41
2022/05/09 00:38:20;;;;;;;5.80;2.10;;;;;;;;;;5093411;28;20279;-40
2022/05/09 00:43:35;;;;;;;8.25;2.65;;;3.40;99.90;;;;;;5094211;28;20210;-41
2022/05/09 00:46:02;;;;;;;6.32;2.90;;;3.40;99.90;;;;;;5094145;28;20518;-42
2022/05/09 00:48:28;;;;;;;6.95;2.85;;;;;;;;;;5093779;28;20071;-40
2022/05/09 00:50:55;;;;;;;12.23;3.55;;;3.30;99.90;;;;;;5093830;28;20085;-41
2022/05/09 00:53:24;;;;;;;5.68;2.65;;;3.30;99.90;;;;;;5094960;28;20112;-41
2022/05/09 00:55:58;;;;;;;8.52;3.13;;;3.30;99.90;;;;;;5095601;28;20035;-43
2022/05/09 00:58:27;;;;;;;8.18;3.13;;;3.50;99.90;;;;;;5094900;28;20613;-43
2022/05/09 01:00:55;;;;;;;8.70;3.08;;;3.40;99.90;;;;;;5096351;28;20039;-41
2022/05/09 01:03:40;;;;;;;7.65;2.35;;;3.40;99.90;;;;;;5094658;28;20082;-40
2022/05/09 01:06:06;;;;;;;5.47;2.70;;;;;;;;;;5094975;28;20415;-41
2022/05/09 01:08:32;;;;;;;6.13;2.70;;;;;;;;;;5094905;28;20036;-41
2022/05/09 01:11:03;;;;;;;4.88;2.30;;;3.20;99.90;;;;;;5095181;28;20063;-42
2022/05/09 01:13:34;;;;;;;6.43;2.25;;;2.90;99.90;;;;;;5094700;28;20050;-42
2022/05/09 01:16:02;;;;;;;4.25;2.17;;;;;;;;;;5094828;28;20046;-42
2022/05/09 01:18:28;;;;;;;4.28;2.15;;;;;;;;;;5094160;28;20114;-46
2022/05/09 01:20:55;;;;;;;6.95;2.28;;;;;;;;;;5093350;28;20043;-41
2022/05/09 01:23:21;;;;;;;8.02;2.00;;;;;;;;;;5093282;28;20042;-42
2022/05/09 01:25:48;;;;;;;5.97;2.33;;;;;;;;;;5093904;28;20092;-43
2022/05/09 01:28:14;;;;;;;8.10;2.50;;;;;;;;;;5093192;28;20058;-43
2022/05/09 01:30:56;;;;;;;7.95;2.70;;;3.00;99.90;;;;;;5093892;28;20032;-42
2022/05/09 01:33:22;;;;;;;8.38;2.05;;;;;;;;;;5093015;28;20132;-43
2022/05/09 01:36:04;;;;;;;7.85;2.05;;;2.80;99.90;;;;;;5093725;28;20054;-43
2022/05/09 01:38:30;;;;;;;7.97;2.22;;;;;;;;;;5092616;28;20063;-44
2022/05/09 01:40:56;;;;;;;4.82;2.10;;;;;;;;;;5093697;28;20055;-43
2022/05/09 01:43:38;;;;;;;5.70;2.38;;;3.00;99.90;;;;;;5092834;28;20903;-42
2022/05/09 01:46:12;;;;;;;5.40;2.13;;;3.00;99.90;;;;;;5091593;28;20409;-43
2022/05/09 01:51:24;;;;;;;3.65;1.63;;;;;;;;;;5090345;28;20047;-42
2022/05/09 01:53:52;;;;;;;8.05;2.92;;;;;;;;;;5093006;28;20051;-42
2022/05/09 01:56:24;;;;;;;6.28;2.10;;;2.80;99.90;;;;;;5092305;28;20058;-42
2022/05/09 01:58:53;;;;;;;7.57;2.65;;;3.00;99.90;;;;;;5093570;28;20682;-42
2022/05/09 02:01:20;;;;;;;6.65;2.20;;;2.90;99.90;;;;;;5093725;28;20066;-41
2022/05/09 02:03:47;;;;;;;6.55;2.45;;;;;;;;;;5092944;28;20035;-42
2022/05/09 02:06:15;;;;;;;17.60;3.53;;;2.90;99.90;;;;;;5092799;28;20044;-41
2022/05/09 02:08:41;;;;;;;5.85;2.30;;;;;;;;;;5093149;28;20043;-41
2022/05/09 02:11:07;;;;;;;7.53;3.72;;;2.80;99.90;;;;;;5093424;28;20592;-43
2022/05/09 02:13:33;;;;;;;4.63;1.80;;;2.80;99.90;;;;;;5094018;28;20035;-42
2022/05/09 02:16:00;;;;;;;7.45;2.28;;;;;;;;;;5093831;28;20044;-41
2022/05/09 02:18:26;;;;;;;8.55;2.67;;;;;;;;;;5093287;28;20036;-47
2022/05/09 02:20:53;;;;;;;8.63;3.00;;;2.80;99.90;;;;;;5093454;28;20043;-44
2022/05/09 02:23:20;;;;;;;10.60;2.65;;;;;;;;;;5092874;28;20043;-42
2022/05/09 02:25:46;;;;;;;8.38;2.97;;;;;;;;;;5094238;28;20040;-43
2022/05/09 02:28:13;;;;;;;9.70;2.90;;;2.70;99.90;;;;;;5092182;28;20436;-41
2022/05/09 02:30:40;;;;;;;9.13;3.45;;;2.80;99.90;;;;;;5094616;28;20043;-42
2022/05/09 02:33:08;;;;;;;7.45;3.15;;;2.60;99.90;;;;;;5093649;28;20047;-41
2022/05/09 02:35:36;;;;;;;10.50;3.47;;;2.80;99.90;;;;;;5090796;28;20043;-42
2022/05/09 02:38:03;;;;;;;9.95;3.60;;;;;;;;;;5092578;28;20109;-44
2022/05/09 02:40:29;;;;;;;8.88;3.13;;;;;;;;;;5092162;28;20088;-44
2022/05/09 02:42:57;;;;;;;9.70;3.28;;;2.60;99.90;;;;;;5092200;28;20733;-42
2022/05/09 02:45:24;;;;;;;12.57;2.95;;;;;;;;;;5090268;28;20460;-43
2022/05/09 02:47:50;;;;;;;11.20;3.28;;;2.80;99.90;;;;;;5093159;28;20109;-47
2022/05/09 02:50:19;;;;;;;10.27;4.28;;;2.60;99.90;;;;;;5091088;28;20074;-44
2022/05/09 02:52:47;;;;;;;8.65;4.05;;;;;;;;;;5092257;28;20122;-44
2022/05/09 02:55:13;;;;;;;12.10;4.80;;;;;;;;;;5092842;28;20058;-42
2022/05/09 02:57:39;;;;;;;8.98;4.05;;;;;;;;;;5096088;28;20956;-41
2022/05/09 03:00:10;;;;;;;7.60;3.30;;;2.50;99.90;;;;;;5096581;28;20047;-44
2022/05/09 03:02:37;;;;;;;8.13;2.90;;;;;;;;;;5096637;28;20043;-42
2022/05/09 03:05:03;;;;;;;11.95;3.65;;;;;;;;;;5095797;28;20134;-44
2022/05/09 03:07:29;;;;;;;10.80;2.88;;;;;;;;;;5094030;28;20032;-42
2022/05/09 03:09:55;;;;;;;9.98;3.85;;;;;;;;;;5095084;27;20040;-43
2022/05/09 03:12:21;;;;;;;7.28;3.50;;;;;;;;;;5095280;28;20071;-44
2022/05/09 03:14:48;;;;;;;7.50;3.33;;;2.30;99.90;;;;;;5096304;28;20074;-43
2022/05/09 03:17:15;;;;;;;8.13;3.40;;;2.30;99.90;;;;;;5095102;28;20051;-44
2022/05/09 03:19:41;;;;;;;6.43;3.10;;;;;;;;;;5094634;28;20092;-44
2022/05/09 03:22:07;;;;;;;6.38;3.20;;;;;;;;;;5096351;28;20470;-45
2022/05/09 03:24:36;;;;;;;8.50;3.50;;;2.10;99.90;;;;;;5097017;28;20066;-43
2022/05/09 03:27:04;;;;;;;5.05;3.00;;;;;;;;;;5097368;28;20126;-43
2022/05/09 03:29:31;;;;;;;7.15;3.08;;;1.90;99.90;;;;;;5095053;28;20404;-45
2022/05/09 03:31:57;;;;;;;5.80;3.00;;;;;;;;;;5096942;28;20122;-43
2022/05/09 03:34:23;;;;;;;6.82;3.45;;;;;;;;;;5094592;28;20058;-47
2022/05/09 03:36:54;;;;;;;9.75;3.50;;;;;;;;;;5095731;28;20086;-42
2022/05/09 03:39:21;;;;;;;5.75;2.88;;;4.00;99.90;;;;;;5096608;28;20132;-43
2022/05/09 03:41:47;;;;;;;5.82;2.83;;;;;;;;;;5095964;28;20071;-45
2022/05/09 03:44:13;;;;;;;7.10;3.17;;;;;;;;;;5095970;28;20131;-44
2022/05/09 03:46:41;;;;;;;5.18;3.35;;;2.20;99.90;;;;;;5095586;28;20043;-44
2022/05/09 03:49:11;;;;;;;5.68;3.08;;;2.30;99.90;;;;;;5093995;28;20200;-44
2022/05/09 03:51:37;;;;;;;5.43;2.55;;;;;;;;;;5094118;28;21133;-44
2022/05/09 03:54:03;;;;;;;4.93;2.60;;;;;;;;;;5095924;28;20555;-43
2022/05/09 03:56:31;;;;;;;5.50;2.42;;;2.30;99.90;;;;;;5094243;28;20044;-46
2022/05/09 03:58:56;;;;;;;7.07;3.75;;;2.30;99.90;;;;;;5094637;28;20027;-46
2022/05/09 04:01:22;;;;;;;5.60;2.72;;;;;;;;;;5095831;28;20564;-46
2022/05/09 04:03:48;;;;;;;5.65;2.58;;;;;;;;;;5095140;28;20043;-45
2022/05/09 04:06:15;;;;;;;5.88;2.03;;;;;;;;;;5094058;28;20070;-46
2022/05/09 04:08:41;;;;;;;7.93;2.40;;;;;;;;;;5093646;28;20046;-44
2022/05/09 04:11:10;;;;;;;6.82;2.75;;;2.30;99.90;;;;;;5092728;28;20122;-45
2022/05/09 04:13:36;;;;;;;6.82;2.75;;;;;;;;;;5093887;28;20070;-43
2022/05/09 04:18:47;;;;;;;8.30;2.65;;;;;;;;;;5094326;28;20344;-45
2022/05/09 04:21:14;;;;;;;5.30;3.10;;;;;;;;;;5094125;28;20138;-46
2022/05/09 04:23:40;;;;;;;6.10;2.80;;;;;;;;;;5093763;28;20488;-48
2022/05/09 04:26:06;;;;;;;16.45;3.47;;;;;;;;;;5094923;28;20058;-48
2022/05/09 04:28:32;;;;;;;10.05;3.50;;;;;;;;;;5094344;28;20048;-45
2022/05/09 04:30:59;;;;;;;7.75;2.88;;;;;;;;;;5094642;28;20044;-47
2022/05/09 04:33:27;;;;;;;4.78;2.30;;;2.50;99.90;;;;;;5094236;28;20043;-44
2022/05/09 04:35:54;;;;;;;8.63;2.80;;;;;;;;;;5093665;28;20035;-47
2022/05/09 04:38:22;;;;;;;7.45;3.17;;;2.80;99.90;;;;;;5094820;28;20046;-43
2022/05/09 04:40:52;;;;;;;7.50;3.47;;;3.00;99.90;;;;;;5093937;28;20487;-43
2022/05/09 04:43:23;;;;;;;7.07;2.50;;;3.10;99.90;;;;;;5093878;28;20043;-43
2022/05/09 04:45:49;;;;;;;4.75;2.88;;;3.20;99.90;;;;;;5094296;28;20509;-44
2022/05/09 04:48:20;;;;;;;6.45;1.90;;;3.10;99.90;;;;;;5092823;28;20036;-47
2022/05/09 04:50:47;;;;;;;5.38;1.90;;;;;;;;;;5094126;28;20069;-45
2022/05/09 04:53:16;;;;;;;4.82;1.75;;;3.90;99.90;;;;;;5094613;28;20032;-45
2022/05/09 04:55:42;;;;;;;4.72;2.03;;;;;;;;;;5093628;28;20054;-49
2022/05/09 04:58:15;;;;;;;7.25;2.42;;;3.50;99.90;;;;;;5093966;28;20058;-46
2022/05/09 05:00:41;;;;;;;10.00;2.83;;;;;;;;;;5092774;28;20036;-46
2022/05/09 05:03:07;;;;;;;4.15;2.17;;;3.90;99.90;;;;;;5094469;28;20036;-45
2022/05/09 05:05:32;;;;;;;4.80;2.22;;;4.10;99.90;;;;;;5091442;28;20040;-47
2022/05/09 05:08:00;;;;;;;6.35;2.50;;;;;;;;;;5092685;28;20031;-50
2022/05/09 05:10:27;;;;;;;9.13;3.00;;;4.30;99.90;;;;;;5091801;28;20143;-49
2022/05/09 05:12:53;;;;;;;8.20;3.10;;;4.50;99.90;;;;;;5093079;28;20428;-48
2022/05/09 05:15:18;;;;;;;5.30;2.83;;;4.90;99.90;;;;;;5092163;28;20042;-49
2022/05/09 05:17:44;;;;;;;8.80;2.83;;;4.90;99.90;;;;;;5093564;28;20465;-50
2022/05/09 05:20:14;;;;;;;6.50;2.80;;;4.90;99.90;;;;;;5092003;28;20596;-48
2022/05/09 05:22:42;;;;;;;7.38;2.60;;;5.10;99.90;;;;;;5091306;28;20124;-48
2022/05/09 05:25:09;;;;;;;8.27;3.63;;;5.20;99.90;;;;;;5091321;28;20575;-49
2022/05/09 05:27:35;;;;;;;11.85;3.47;;;5.60;99.90;;;;;;5092996;28;20417;-48
2022/05/09 05:30:04;;;;;;;5.80;3.20;;;5.60;99.90;;;;;;5073693;28;20622;-50
2022/05/09 05:32:34;;;;;;;15.25;4.93;;;5.80;99.90;;;;;;5092811;28;20052;-48
2022/05/09 05:35:00;;;;;;;15.88;6.22;;;6.20;99.90;;;;;;5092721;28;20762;-47
2022/05/09 05:37:26;;;;;;;14.50;5.93;;;6.80;99.90;;;;;;5091604;28;20543;-48
2022/05/09 05:39:52;;;;;;;15.95;6.10;;;6.90;99.90;;;;;;5092597;28;20047;-48
2022/05/09 05:42:18;;;;;;;20.10;6.22;;;7.40;99.90;;;;;;5092375;28;20036;-48
2022/05/09 05:44:47;;;;;;;17.70;6.65;;;8.10;99.90;;;;;;5092604;28;20035;-47
2022/05/09 05:47:15;;;;;;;19.35;5.95;;;8.70;99.90;;;;;;5091055;28;20037;-44
2022/05/09 05:49:41;;;;;;;13.32;5.70;;;8.60;99.90;;;;;;5091864;28;20036;-48
2022/05/09 05:52:11;;;;;;;14.18;6.50;;;10.30;99.90;;;;;;5093169;28;20051;-46
2022/05/09 05:54:40;;;;;;;20.17;7.20;;;9.70;99.90;;;;;;5092824;28;20142;-48
2022/05/09 05:57:28;;;;;;;21.95;7.60;;;8.90;99.90;;;;;;5094890;28;20126;-48
2022/05/09 05:59:56;;;;;;;19.95;6.30;;;9.60;99.90;;;;;;5093497;28;20480;-49
2022/05/09 06:02:23;;;;;;;24.52;6.10;;;10.40;99.90;;;;;;5094141;28;20120;-48
2022/05/09 06:04:49;;;;;;;17.73;6.22;;;11.40;99.90;;;;;;5093633;28;20040;-46
2022/05/09 06:07:18;;;;;;;17.83;5.85;;;12.30;99.90;;;;;;5091865;28;21079;-48
2022/05/09 06:09:45;;;;;;;12.95;5.30;;;13.30;99.90;;;;;;5093847;28;20036;-48
2022/05/09 06:12:13;;;;;;;19.83;5.90;;;14.40;99.90;;;;;;5092801;28;20047;-46
2022/05/09 06:14:40;;;;;;;14.52;5.30;;;14.20;99.90;;;;;;5091097;28;20134;-47
2022/05/09 06:17:06;;;;;;;13.35;5.32;;;14.40;99.90;;;;;;5092264;28;20047;-46
2022/05/09 06:19:32;;;;;;;19.58;5.72;;;14.50;99.90;;;;;;5092182;28;20039;-46
2022/05/09 06:21:59;;;;;;;18.85;4.85;;;14.20;99.90;;;;;;5092387;28;20039;-46
2022/05/09 06:24:25;;;;;;;17.40;5.38;;;14.20;99.90;;;;;;5091220;28;20047;-46
2022/05/09 06:26:51;;;;;;;19.02;5.50;;;14.20;99.90;;;;;;5090855;28;20047;-44
2022/05/09 06:29:19;;;;;;;14.90;4.90;;;14.40;99.90;;;;;;5090839;28;20097;-44
2022/05/09 06:31:45;;;;;;;15.18;5.32;;;15.60;99.90;;;;;;5096261;28;20067;-44
2022/05/09 06:34:13;;;;;;;16.73;5.18;;;14.40;99.90;;;;;;5097643;27;20154;-45
2022/05/09 06:36:40;;;;;;;14.88;5.85;;;14.70;99.90;;;;;;5095419;28;20071;-45
2022/05/09 06:39:08;;;;;;;17.42;5.10;;;14.70;99.90;;;;;;5095703;28;20067;-44
2022/05/09 06:41:34;;;;;;;14.93;5.10;;;15.30;99.90;;;;;;5094406;28;20035;-47
2022/05/09 06:44:00;;;;;;;12.05;4.35;;;15.10;99.90;;;;;;5095905;28;20652;-44
2022/05/09 06:46:26;;;;;;;13.63;4.20;;;15.30;99.90;;;;;;5094734;28;20036;-45
2022/05/09 06:48:52;;;;;;;13.30;4.18;;;15.90;99.90;;;;;;5096390;28;20134;-44
2022/05/09 06:51:20;;;;;;;13.68;4.25;;;17.50;99.90;;;;;;5094839;28;20835;-44
2022/05/09 06:53:46;;;;;;;17.88;4.65;;;17.80;99.90;;;;;;5095440;28;20096;-48
2022/05/09 06:56:14;;;;;;;14.80;4.55;;;18.40;99.90;;;;;;5094308;28;20110;-45
2022/05/09 06:58:39;;;;;;;18.33;4.90;;;19.30;99.90;;;;;;5096048;28;20116;-45
2022/05/09 07:01:17;;;;;;;15.27;4.50;;;19.80;99.90;;;;;;5096823;28;20047;-45
2022/05/09 07:03:43;;;;;;;17.65;5.22;;;21.70;99.90;;;;;;5097689;28;20031;-44
2022/05/09 07:06:09;;;;;;;17.92;5.32;;;20.60;99.90;;;;;;5093997;28;20051;-45
2022/05/09 07:08:35;;;;;;;14.25;3.83;;;20.80;99.90;;;;;;5095301;28;20042;-48
2022/05/09 07:11:05;;;;;;;11.85;4.07;;;21.60;99.90;;;;;;5096609;28;20044;-47
2022/05/09 07:13:33;;;;;;;52.00;21.48;;;21.60;99.90;;;;;;5096175;28;20112;-47
2022/05/09 07:16:00;;;;;;;600.75;548.05;;;21.70;99.90;;;;;;5095606;28;20073;-46
2022/05/09 07:18:28;;;;;;;854.35;711.67;;;22.80;97.70;;;;;;5093451;28;20043;-46
2022/05/09 07:20:56;;;;;;;568.70;511.30;;;24.70;97.80;;;;;;5097331;28;20050;-46
2022/05/09 07:23:22;;;;;;;14.13;4.43;;;22.90;96.80;;;;;;5095930;28;20403;-46
2022/05/09 07:25:50;;;;;;;10.18;3.60;;;22.60;96.50;;;;;;5093997;28;20278;-50
2022/05/09 07:28:19;;;;;;;13.15;4.65;;;24.10;96.20;;;;;;5095143;27;20583;-47
2022/05/09 07:30:46;;;;;;;12.50;4.20;;;23.30;95.20;;;;;;5095605;28;20101;-49
2022/05/09 07:33:15;;;;;;;16.17;5.18;;;23.40;95.10;;;;;;5095021;28;20112;-50
2022/05/09 07:35:41;;;;;;;12.90;3.92;;;23.90;94.60;;;;;;5094488;28;20036;-50
2022/05/09 07:38:08;;;;;;;15.50;4.53;;;24.90;92.80;;;;;;5096090;28;20039;-51
2022/05/09 07:40:33;;;;;;;10.13;3.70;;;24.70;91.50;;;;;;5093429;28;20208;-51
2022/05/09 07:42:59;;;;;;;11.95;4.00;;;24.70;90.60;;;;;;5094376;28;20040;-48
2022/05/09 07:45:27;;;;;;;12.02;3.67;;;24.70;89.60;;;;;;5095170;28;20032;-51
2022/05/09 07:47:53;;;;;;;12.75;4.00;;;24.20;89.10;;;;;;5095667;28;20039;-50
2022/05/09 07:50:18;;;;;;;13.88;3.95;;;23.50;90.90;;;;;;5093885;28;20082;-50
2022/05/09 07:52:45;;;;;;;16.70;4.32;;;22.20;92.50;;;;;;5093603;28;20047;-47
2022/05/09 07:55:13;;;;;;;12.50;4.03;;;23.70;93.90;;;;;;5092662;28;20044;-50
2022/05/09 07:57:40;;;;;;;16.10;3.67;;;22.00;94.80;;;;;;5094929;28;20063;-50
2022/05/09 08:00:06;;;;;;;15.52;3.55;;;20.70;92.70;;;;;;5094375;28;20142;-51
2022/05/09 08:02:33;;;;;;;15.60;4.40;;;23.20;92.20;;;;;;5093347;28;21117;-49
2022/05/09 08:05:00;;;;;;;14.50;3.75;;;22.90;92.30;;;;;;5095171;28;20046;-48
2022/05/09 08:07:25;;;;;;;15.90;4.18;;;22.60;92.20;;;;;;5094107;28;20044;-48
2022/05/09 08:09:51;;;;;;;17.88;4.05;;;22.00;92.00;;;;;;5096520;28;20484;-49
2022/05/09 08:12:17;;;;;;;9.98;3.03;;;21.10;94.00;;;;;;5093914;28;20322;-49
2022/05/09 08:14:43;;;;;;;14.65;3.40;;;20.80;94.30;;;;;;5094926;28;20042;-51
2022/05/09 08:17:09;;;;;;;15.27;3.80;;;20.30;94.70;;;;;;5094678;28;20100;-51
2022/05/09 08:19:38;;;;;;;13.05;3.38;;;20.30;97.00;;;;;;5094042;28;20142;-49
2022/05/09 08:22:07;;;;;;;13.68;3.42;;;20.30;96.90;;;;;;5094320;28;21173;-51
2022/05/09 08:24:34;;;;;;;13.00;3.60;;;20.00;96.50;;;;;;5092687;28;20031;-50
2022/05/09 08:26:59;;;;;;;11.20;3.20;;;20.00;97.10;;;;;;5094024;28;20036;-50
2022/05/09 08:29:25;;;;;;;10.40;2.97;;;20.90;97.90;;;;;;5095343;28;20035;-50
2022/05/09 08:31:51;;;;;;;15.60;3.35;;;19.90;97.30;;;;;;5091969;28;20138;-51
2022/05/09 08:34:16;;;;;;;11.25;2.90;;;20.70;97.20;;;;;;5095207;28;20746;-49
2022/05/09 08:36:49;;;;;;;11.80;2.63;;;21.00;95.90;;;;;;5092877;28;20130;-52
2022/05/09 08:39:16;;;;;;;11.07;3.05;;;22.70;94.00;;;;;;5094011;28;20742;-49
2022/05/09 08:41:42;;;;;;;12.82;3.00;;;20.90;94.50;;;;;;5094442;28;20040;-50
2022/05/09 08:44:23;;;;;;;9.20;2.75;;;20.50;94.80;;;;;;5092809;28;20488;-47
2022/05/09 08:47:15;;;;;;;12.55;2.92;;;20.60;93.80;;;;;;5091797;28;20850;-51
2022/05/09 08:50:02;;;;;;;12.52;3.10;;;20.30;94.80;;;;;;5049113;28;20044;-52
2022/05/09 08:52:39;;;;;;;12.02;3.05;;;20.00;94.80;;;;;;5049050;28;20083;-51
2022/05/09 08:55:05;;;;;;;10.45;2.88;;;19.90;96.00;;;;;;5032420;28;20048;-48
2022/05/09 08:57:42;;;;;;;11.60;2.80;;;19.80;95.40;;;;;;5049582;28;20040;-51
2022/05/09 09:00:17;;;;;;;10.30;2.72;;;20.80;95.70;;;;;;5050972;28;20044;-52
2022/05/09 09:03:15;;;;;;;10.55;2.38;;;20.70;93.60;;;;;;5050154;28;20178;-51
2022/05/09 09:05:45;;;;;;;9.90;2.38;;;21.60;91.90;;;;;;5049126;28;20067;-51
2022/05/09 09:08:15;;;;;;;10.05;2.95;;;22.30;91.70;;;;;;5050262;28;20587;-51
2022/05/09 09:10:47;;;;;;;9.07;2.50;;;22.80;87.70;;;;;;5050476;28;20128;-46
2022/05/09 09:13:42;;;;;;;14.07;2.85;;;22.90;86.40;;;;;;5050867;28;20535;-45
2022/05/09 09:16:43;;;;;;;10.85;2.53;;;23.00;85.40;;;;;;5048505;28;20044;-47
2022/05/09 09:19:26;;;;;;;11.43;3.08;;;23.00;83.40;;;;;;5049446;28;20079;-44
2022/05/09 09:22:18;;;;;;;10.32;2.20;;;23.00;83.50;;;;;;5049366;28;20048;-46
2022/05/09 09:24:54;;;;;;;9.35;2.28;;;23.10;82.70;;;;;;5049746;28;20137;-46
2022/05/09 09:27:49;;;;;;;12.50;2.40;;;22.50;84.40;;;;;;5083912;28;20051;-44
2022/05/09 09:30:19;;;;;;;11.48;2.47;;;21.60;82.50;;;;;;5092295;28;20046;-45
2022/05/09 09:32:54;;;;;;;9.73;2.15;;;21.20;85.20;;;;;;5093093;28;20094;-44
2022/05/09 09:35:41;;;;;;;9.57;2.25;;;21.20;86.80;;;;;;5092929;28;20043;-45
2022/05/09 09:38:40;;;;;;;9.73;2.40;;;21.30;89.00;;;;;;5092090;28;20421;-45
2022/05/09 09:41:23;;;;;;;8.60;2.20;;;21.40;86.60;;;;;;5092507;28;20066;-45
2022/05/09 09:44:18;;;;;;;8.15;2.22;;;21.30;86.00;;;;;;5092849;28;20066;-48
2022/05/09 09:47:05;;;;;;;10.90;2.55;;;21.30;85.30;;;;;;5091990;28;20041;-45
2022/05/09 09:49:36;;;;;;;10.38;2.25;;;21.60;85.20;;;;;;5091190;28;20099;-43
2022/05/09 09:52:02;;;;;;;8.10;2.40;;;21.60;86.20;;;;;;5091740;28;20052;-45
2022/05/09 09:54:34;;;;;;;10.30;2.53;;;21.50;87.70;;;;;;5091564;28;20047;-46
2022/05/09 09:57:14;;;;;;;;;;;21.70;88.60;;;;;;5093389;28;20050;-44
2022/05/09 09:59:40;;;;;;;10.52;2.60;;;21.80;87.70;;;;;;5090918;28;19923;-45
2022/05/09 10:02:16;;;;;;;12.68;2.88;;;22.10;89.10;;;;;;5091230;28;20094;-43
2022/05/09 10:04:43;;;;;;;10.55;2.45;;;21.70;89.00;;;;;;5090929;28;20130;-45
2022/05/09 10:07:13;;;;;;;10.93;3.03;;;21.50;87.10;;;;;;5090977;28;20130;-44
2022/05/09 10:09:46;;;;;;;14.68;2.90;;;22.10;87.40;;;;;;5091657;28;20150;-46
2022/05/09 10:12:22;;;;;;;9.73;2.78;;;21.90;89.00;;;;;;5092556;28;20067;-44
2022/05/09 10:14:51;;;;;;;11.27;2.80;;;22.00;86.20;;;;;;5090559;28;20067;-45
2022/05/09 10:17:21;;;;;;;10.40;2.70;;;22.10;86.40;;;;;;5091085;28;20124;-44
2022/05/09 10:19:47;;;;;;;9.90;2.45;;;22.20;84.70;;;;;;5092379;28;20214;-44
2022/05/09 10:25:25;;;;;;;8.00;2.58;;;22.60;88.60;;;;;;5029684;28;20659;-47
2022/05/09 10:28:18;;;;;;;9.63;2.25;;;22.50;86.40;;;;;;5028812;28;20439;-44
2022/05/09 10:30:48;;;;;;;8.48;2.25;;;22.40;84.40;;;;;;5030623;28;20048;-44
2022/05/09 10:33:40;;;;;;;15.10;3.75;;;22.60;86.20;;;;;;5030425;28;20910;-46
2022/05/09 10:36:24;;;;;;;10.15;2.47;;;22.70;84.60;;;;;;5029529;28;20531;-47
2022/05/09 10:38:56;;;;;;;13.48;2.72;;;22.70;83.90;;;;;;5028425;28;20037;-46
2022/05/09 10:41:36;;;;;;;10.63;2.13;;;22.70;82.10;;;;;;5028804;28;20147;-44
2022/05/09 10:44:34;;;;;;;8.27;2.40;;;22.60;79.80;;;;;;5029648;28;20073;-46
2022/05/09 10:47:07;;;;;;;10.35;2.20;;;22.40;80.50;;;;;;4966176;28;20077;-49
2022/05/09 10:49:49;;;;;;;9.32;1.95;;;22.50;83.00;;;;;;4967105;28;20113;-45
2022/05/09 10:52:42;;;;;;;;;;;22.40;81.10;;;;;;4966287;28;20046;-47
2022/05/09 10:55:22;;;;;;;8.63;2.42;;;22.30;81.80;;;;;;4964521;28;20008;-46
2022/05/09 10:58:03;;;;;;;10.43;2.50;;;22.40;84.40;;;;;;4966381;28;20420;-48
2022/05/09 11:00:32;;;;;;;10.05;2.42;;;22.30;80.60;;;;;;4967963;28;20061;-46
2022/05/09 11:03:01;;;;;;;11.48;2.30;;;22.10;83.30;;;;;;5000325;28;20053;-45
2022/05/09 11:05:38;;;;;;;11.30;2.42;;;22.10;82.20;;;;;;5030512;28;20049;-45
2022/05/09 11:08:22;;;;;;;10.77;2.30;;;22.40;84.00;;;;;;5028785;28;20040;-45
2022/05/09 11:11:17;;;;;;;10.68;2.60;;;22.70;82.10;;;;;;5029054;28;20269;-47
2022/05/09 11:14:06;;;;;;;9.68;2.53;;;22.70;79.90;;;;;;5027898;28;20564;-46
2022/05/09 11:17:00;;;;;;;10.20;2.00;;;22.50;81.80;;;;;;5030748;28;20041;-45
2022/05/09 11:19:46;;;;;;;14.35;2.65;;;22.70;83.20;;;;;;4953251;28;20566;-46
2022/05/09 11:22:26;;;;;;;10.05;2.53;;;22.40;81.70;;;;;;4903827;29;20142;-44
2022/05/09 11:25:29;;;;;;;11.18;2.38;;;22.50;80.70;;;;;;4959332;28;20046;-44
2022/05/09 11:28:03;;;;;;;9.30;2.17;;;22.50;80.90;;;;;;4968408;28;20050;-46
2022/05/09 11:30:46;;;;;;;14.55;2.35;;;22.30;79.90;;;;;;4972176;28;20058;-44
2022/05/09 11:33:32;;;;;;;8.65;2.00;;;22.10;81.30;;;;;;4972152;28;20057;-46
2022/05/09 11:36:25;;;;;;;11.25;2.65;;;24.20;82.10;;;;;;4973786;28;20055;-49
2022/05/09 11:39:22;;;;;;;9.18;2.30;;;22.40;84.10;;;;;;4971339;28;20038;-46
2022/05/09 11:41:53;;;;;;;14.30;2.00;;;22.60;84.60;;;;;;4895664;29;20053;-45
2022/05/09 11:44:24;;;;;;;11.93;2.05;;;22.80;83.70;;;;;;4896994;29;20091;-45
2022/05/09 11:47:04;;;;;;;10.77;2.42;;;23.10;85.60;;;;;;4895814;29;20195;-49
2022/05/09 11:50:07;;;;;;;8.27;1.88;;;23.10;82.20;;;;;;4894565;29;20056;-45
2022/05/09 11:52:41;;;;;;;6.47;2.10;;;23.00;78.80;;;;;;4879245;29;20043;-45
2022/05/09 11:55:19;;;;;;;9.30;2.25;;;23.10;77.70;;;;;;4879572;29;21012;-46
2022/05/09 11:57:50;;;;;;;10.10;2.00;;;22.90;76.00;;;;;;4932721;29;20138;-48
2022/05/09 12:00:30;;;;;;;7.85;2.08;;;22.90;81.30;;;;;;5001147;28;20049;-48
2022/05/09 12:03:00;;;;;;;7.88;1.83;;;23.20;83.70;;;;;;5012523;28;20122;-44
2022/05/09 12:05:26;;;;;;;7.80;2.20;;;23.30;82.50;;;;;;5011288;28;20056;-45
2022/05/09 12:08:41;;;;;;;8.13;2.17;;;23.20;80.90;;;;;;5012362;28;20037;-44
2022/05/09 12:11:29;;;;;;;11.00;2.38;;;23.30;81.50;;;;;;5010693;28;20395;-45
2022/05/09 12:13:57;;;;;;;8.05;2.47;;;23.10;82.80;;;;;;5010777;28;20119;-46
2022/05/09 12:16:37;;;;;;;8.85;2.05;;;23.10;82.10;;;;;;5012127;28;20049;-44
2022/05/09 12:19:11;;;;;;;8.18;2.15;;;23.20;83.90;;;;;;5054431;28;20404;-46
2022/05/09 12:21:37;;;;;;;7.22;2.05;;;23.30;80.70;;;;;;5094453;28;20038;-45
2022/05/09 12:24:16;;;;;;;9.68;2.78;;;23.20;81.70;;;;;;5093585;28;20039;-45
2022/05/09 12:26:44;;;;;;;10.93;2.40;;;23.00;78.30;;;;;;5092767;28;20044;-45
2022/05/09 12:29:16;;;;;;;10.38;2.20;;;24.30;80.40;;;;;;5092356;28;20605;-45
2022/05/09 12:32:03;;;;;;;10.70;2.08;;;23.00;81.00;;;;;;5094055;28;20508;-46
2022/05/09 12:34:41;;;;;;;10.07;2.35;;;23.00;77.70;;;;;;5094324;28;20031;-50
2022/05/09 12:37:10;;;;;;;10.60;2.17;;;23.10;82.60;;;;;;5092921;28;20048;-45
2022/05/09 12:39:44;;;;;;;11.90;1.90;;;23.00;82.80;;;;;;5092485;28;20066;-45
2022/05/09 12:42:42;;;;;;;11.27;2.08;;;23.00;80.90;;;;;;5093357;28;20126;-44
2022/05/09 12:45:09;;;;;;;10.02;2.00;;;23.50;80.90;;;;;;5091606;28;20052;-44
2022/05/09 12:47:38;;;;;;;10.63;1.83;;;23.40;78.70;;;;;;5093334;28;20048;-44
2022/05/09 12:50:15;;;;;;;14.13;2.45;;;24.40;80.80;;;;;;5093896;28;20032;-44
2022/05/09 12:52:49;;;;;;;12.70;2.25;;;25.20;83.90;;;;;;5091294;28;20059;-46
2022/05/09 12:57:59;;;;;;;5.78;1.65;;;23.50;80.00;;;;;;5092206;28;20716;-45
2022/05/09 13:00:30;;;;;;;7.35;1.80;;;23.50;79.70;;;;;;5092918;28;20130;-47
2022/05/09 13:03:08;;;;;;;9.85;1.83;;;23.30;76.60;;;;;;5093097;28;20043;-45
2022/05/09 13:05:40;;;;;;;9.07;1.60;;;23.30;79.10;;;;;;5093754;28;20084;-47
2022/05/09 13:08:06;;;;;;;;;;;23.40;76.20;;;;;;5093749;28;20051;-44
2022/05/09 13:10:41;;;;;;;28.77;2.58;;;23.10;76.10;;;;;;5092804;28;20356;-47
2022/05/09 13:13:08;;;;;;;7.50;1.63;;;23.10;81.10;;;;;;5091933;28;20527;-45
2022/05/09 13:15:36;;;;;;;8.07;1.90;;;23.00;79.80;;;;;;5093084;28;20537;-49
2022/05/09 13:18:07;;;;;;;5.43;1.50;;;23.20;80.00;;;;;;5093406;28;20036;-44
2022/05/09 13:20:47;;;;;;;10.13;2.10;;;23.30;80.10;;;;;;5092987;28;20568;-45
2022/05/09 13:23:13;;;;;;;6.30;2.00;;;23.20;78.30;;;;;;5093392;28;20050;-45
2022/05/09 13:25:46;;;;;;;9.32;2.15;;;22.90;78.30;;;;;;5092151;28;20038;-46
2022/05/09 13:28:17;;;;;;;8.23;2.30;;;22.90;80.90;;;;;;5092285;28;20472;-46
2022/05/09 13:30:54;;;;;;;9.73;1.80;;;23.10;81.70;;;;;;5091509;28;20142;-44
2022/05/09 13:33:23;;;;;;;6.35;1.92;;;22.90;81.50;;;;;;5091221;28;20051;-46
2022/05/09 13:35:51;;;;;;;5.40;1.80;;;23.20;80.30;;;;;;5093058;28;20059;-45
2022/05/09 13:38:25;;;;;;;11.48;1.95;;;23.30;80.60;;;;;;5093557;28;20069;-45
2022/05/09 13:40:59;;;;;;;8.50;1.80;;;23.20;79.80;;;;;;5092648;28;20035;-45
2022/05/09 13:43:30;;;;;;;8.35;2.13;;;22.90;78.90;;;;;;5093188;28;20532;-44